aviador You're here:

LYTV Decoded Metar

TIVAT in SERBIA
Report Time2017-08-23 04:00:00
UTC Time2017-08-23 04:12:02
Flight Rules vfr VFR
WindVRB at 01 kt
Visibility9999 m
Phenomena:N/A
Clouds:N/A
Expected CloudBase > 2,400 ft AGL from Temp-Dew spread
CeilingNone
Temp14°C (ISA -1)
Dew Point08°C (67% RH)
AAT13.2°C
QNH1015 hPa
Density Alt-20 ft
Elevation16 ft
Report Wrong Elevation
Raw Report
LYTV 230400Z VRB01KT CAVOK 14/08 Q1015=

Extra information for LYTV:More info

Metar Taf Metar & Taf Last 4 Metars F.Rules Stats Wind Profile Meteogram Temp Stats Airport Information Weather charts Add Link Nearby VenuesMetar ALERT Operation Metar Decoded Social comments